Time;durP1;ratioP1;P1;durP2;ratioP2;P2;SDS_P1;SDS_P2;PMS_P1;PMS_P2;Temp;Humidity;BMP_temperature;BMP_pressure;BME280_temperature;BME280_humidity;BME280_pressure;Samples;Min_cycle;Max_cycle;Signal;HPM_P1;HPM_P2
2022/03/29 00:00:12;;;;;;;501.27;431.42;;;;;;;11.11;50.48;100904.06;693554;28;23475;-64
2022/03/29 00:00:33;;;;;;;501.50;429.88;;;;;;;11.11;50.58;100904.06;695644;28;114408;-64
2022/03/29 00:00:54;;;;;;;502.00;432.25;;;;;;;11.11;50.62;100906.75;698101;28;47246;-64
2022/03/29 00:01:15;;;;;;;501.77;431.77;;;;;;;11.12;50.36;100907.59;698518;28;23410;-64
2022/03/29 00:01:37;;;;;;;501.27;430.27;;;;;;;11.11;50.63;100906.75;696827;28;23399;-64
2022/03/29 00:01:59;;;;;;;500.38;431.50;;;;;;;11.11;50.30;100908.59;698065;28;44380;-64
2022/03/29 00:02:20;;;;;;;501.75;434.10;;;;;;;11.10;50.37;100909.63;696204;28;47282;-63
2022/03/29 00:02:41;;;;;;;500.92;428.95;;;;;;;11.08;50.41;100906.25;693699;28;23694;-63
2022/03/29 00:03:04;;;;;;;501.25;427.80;;;;;;;11.06;50.37;100903.72;693843;28;18185;-63
2022/03/29 00:03:25;;;;;;;500.63;427.85;;;;;;;11.06;50.48;100902.88;692252;28;44202;-64
2022/03/29 00:03:46;;;;;;;500.88;426.85;;;;;;;11.04;50.75;100905.75;693205;28;23678;-64
2022/03/29 00:04:07;;;;;;;500.33;424.98;;;;;;;11.02;50.80;100913.22;693298;28;23502;-64
2022/03/29 00:04:28;;;;;;;499.70;422.95;;;;;;;11.00;50.79;100905.28;695427;28;22386;-64
2022/03/29 00:04:50;;;;;;;500.67;424.48;;;;;;;11.00;50.60;100909.81;696558;28;21550;-64
2022/03/29 00:05:11;;;;;;;500.52;425.65;;;;;;;11.02;50.90;100902.41;695323;28;46344;-64
2022/03/29 00:05:32;;;;;;;500.50;426.53;;;;;;;11.01;50.57;100906.13;694906;28;46338;-63
2022/03/29 00:05:54;;;;;;;500.13;424.15;;;;;;;11.00;50.69;100907.13;695564;28;46662;-63
2022/03/29 00:06:16;;;;;;;500.52;425.92;;;;;;;11.00;50.63;100907.13;695908;28;22212;-63
2022/03/29 00:06:37;;;;;;;501.27;426.85;;;;;;;10.98;50.73;100906.47;692006;28;45064;-64
2022/03/29 00:06:58;;;;;;;501.30;429.40;;;;;;;10.96;50.91;100903.94;693435;28;23475;-64
2022/03/29 00:07:19;;;;;;;499.60;426.05;;;;;;;10.97;50.82;100910.16;693469;28;22383;-64
2022/03/29 00:07:40;;;;;;;500.05;428.38;;;;;;;10.96;50.44;100905.81;692487;28;44236;-64
2022/03/29 00:08:04;;;;;;;500.42;428.25;;;;;;;10.92;50.57;100909.88;693997;28;23401;-64
2022/03/29 00:08:25;;;;;;;501.17;430.33;;;;;;;10.89;50.73;100905.66;690716;28;90333;-64
2022/03/29 00:08:46;;;;;;;501.73;428.80;;;;;;;10.84;50.87;100902.63;693727;28;22416;-64
2022/03/29 00:09:10;;;;;;;501.40;430.13;;;;;;;10.79;51.18;100900.44;693926;28;23531;-64
2022/03/29 00:09:31;;;;;;;503.73;434.65;;;;;;;10.78;50.96;100904.19;691358;28;68622;-64
2022/03/29 00:09:52;;;;;;;503.48;432.35;;;;;;;10.77;51.06;100898.97;693121;28;22597;-64
2022/03/29 00:10:13;;;;;;;501.58;428.58;;;;;;;10.78;51.19;100911.44;693300;28;23382;-64
2022/03/29 00:10:35;;;;;;;500.38;427.27;;;;;;;10.77;51.04;100904.38;693236;28;24451;-64
2022/03/29 00:10:56;;;;;;;501.02;427.15;;;;;;;10.74;51.41;100900.13;692178;28;67483;-64
2022/03/29 00:11:18;;;;;;;500.52;427.33;;;;;;;10.74;51.29;100894.75;693633;28;22394;-64
2022/03/29 00:11:39;;;;;;;500.23;428.17;;;;;;;10.77;51.20;100902.50;692885;28;23446;-64
2022/03/29 00:12:01;;;;;;;500.75;427.05;;;;;;;10.74;51.26;100897.44;693808;28;23405;-64
2022/03/29 00:12:22;;;;;;;499.98;425.48;;;;;;;10.74;51.48;100904.72;692425;28;46293;-64
2022/03/29 00:12:43;;;;;;;500.30;424.73;;;;;;;10.76;51.33;100897.25;693163;28;21549;-64
2022/03/29 00:13:04;;;;;;;500.27;422.60;;;;;;;10.76;51.64;100897.25;693251;28;22386;-64
2022/03/29 00:13:26;;;;;;;500.15;423.25;;;;;;;10.77;51.48;100902.50;693510;28;22457;-63
2022/03/29 00:13:47;;;;;;;499.55;420.65;;;;;;;10.77;51.21;100902.50;692674;28;46418;-63
2022/03/29 00:14:08;;;;;;;501.08;426.55;;;;;;;10.78;51.51;100900.63;693509;28;22468;-64
2022/03/29 00:14:29;;;;;;;501.63;425.75;;;;;;;10.77;51.62;100898.97;692348;28;45234;-64
2022/03/29 00:14:52;;;;;;;500.42;426.30;;;;;;;10.78;51.29;100906.03;693089;28;23676;-64
2022/03/29 00:15:13;;;;;;;501.70;427.17;;;;;;;10.78;51.50;100901.50;692381;28;45251;-64
2022/03/29 00:15:34;;;;;;;501.98;427.00;;;;;;;10.81;51.43;100900.28;693306;28;23467;-64
2022/03/29 00:15:55;;;;;;;500.85;427.80;;;;;;;10.81;51.06;100894.88;693083;28;23279;-64
2022/03/29 00:16:17;;;;;;;499.17;423.23;;;;;;;10.81;51.20;100897.56;693250;28;23507;-64
2022/03/29 00:16:39;;;;;;;500.55;426.70;;;;;;;10.81;51.30;100897.56;690868;28;69228;-64
2022/03/29 00:17:00;;;;;;;500.50;425.92;;;;;;;10.81;51.03;100897.56;693808;28;23419;-63
2022/03/29 00:17:32;;;;;;;501.13;427.98;;;;;;;10.77;51.09;100891.69;691107;28;98122;-64
2022/03/29 00:17:54;;;;;;;501.92;432.52;;;;;;;10.76;51.32;100898.09;692149;28;66276;-64
2022/03/29 00:18:15;;;;;;;502.95;434.38;;;;;;;10.76;51.26;100897.25;693288;28;21266;-64
2022/03/29 00:18:36;;;;;;;501.33;434.23;;;;;;;10.72;51.48;100896.78;693621;28;22376;-64
2022/03/29 00:18:58;;;;;;;502.77;440.13;;;;;;;10.70;51.72;100892.56;693649;28;23420;-63
2022/03/29 00:19:19;;;;;;;503.95;447.48;;;;;;;10.69;51.67;100893.56;692444;28;46257;-64
2022/03/29 00:19:40;;;;;;;510.38;454.02;;;;;;;10.68;51.71;100892.72;692750;28;22434;-64
2022/03/29 00:20:01;;;;;;;506.88;446.58;;;;;;;10.67;51.75;100891.03;693302;28;23417;-63
2022/03/29 00:20:24;;;;;;;501.90;436.80;;;;;;;10.68;51.83;100892.72;693259;28;21551;-63
2022/03/29 00:20:45;;;;;;;501.88;434.60;;;;;;;10.68;51.62;100886.50;691968;28;69373;-64
2022/03/29 00:21:06;;;;;;;503.50;440.52;;;;;;;10.64;51.89;100876.03;693746;28;22561;-64
2022/03/29 00:21:28;;;;;;;502.13;435.70;;;;;;;10.68;51.76;100884.63;693618;28;21530;-64
2022/03/29 00:21:49;;;;;;;502.02;435.70;;;;;;;10.68;51.47;100881.09;691763;28;46377;-64
2022/03/29 00:22:10;;;;;;;501.38;431.60;;;;;;;10.69;51.77;100883.63;693183;28;22413;-64
2022/03/29 00:22:31;;;;;;;499.98;425.38;;;;;;;10.68;51.77;100884.63;693428;28;22353;-64
2022/03/29 00:22:53;;;;;;;498.70;419.88;;;;;;;10.71;51.51;100883.44;693395;28;21475;-64
2022/03/29 00:23:14;;;;;;;499.63;421.25;;;;;;;10.71;51.44;100883.44;692420;28;46266;-63
2022/03/29 00:23:35;;;;;;;500.85;423.95;;;;;;;10.71;51.65;100883.44;693341;28;22385;-64
2022/03/29 00:23:57;;;;;;;500.50;425.10;;;;;;;10.70;51.67;100888.00;693943;28;23424;-64
2022/03/29 00:24:20;;;;;;;501.25;427.88;;;;;;;10.70;51.52;100884.44;691704;28;46919;-64
2022/03/29 00:24:41;;;;;;;502.35;433.02;;;;;;;10.68;51.39;100889.19;691389;28;69449;-64
2022/03/29 00:25:03;;;;;;;503.40;434.80;;;;;;;10.68;51.47;100891.91;693519;28;22393;-64
2022/03/29 00:25:25;;;;;;;500.98;432.95;;;;;;;10.68;51.62;100894.59;692576;28;44374;-64
2022/03/29 00:25:46;;;;;;;501.73;432.52;;;;;;;10.67;51.50;100885.63;692079;28;44156;-64
2022/03/29 00:26:07;;;;;;;501.80;430.73;;;;;;;10.67;51.59;100885.63;693206;28;23417;-64
2022/03/29 00:26:29;;;;;;;502.25;430.92;;;;;;;10.66;51.56;100883.97;693083;28;23488;-64
2022/03/29 00:26:51;;;;;;;501.13;427.83;;;;;;;10.67;51.88;100887.50;692179;28;46406;-64
2022/03/29 00:27:12;;;;;;;500.63;427.88;;;;;;;10.66;51.47;100883.97;693724;28;21339;-63
2022/03/29 00:27:35;;;;;;;500.73;425.67;;;;;;;10.63;51.50;100885.16;692326;28;46479;-64
2022/03/29 00:27:56;;;;;;;500.02;424.13;;;;;;;10.61;51.75;100884.50;685604;28;93068;-64
2022/03/29 00:28:17;;;;;;;499.55;425.75;;;;;;;10.63;51.51;100887.84;691325;28;23463;-64
2022/03/29 00:28:39;;;;;;;499.98;422.20;;;;;;;10.63;51.80;100887.03;690524;28;22392;-64
2022/03/29 00:29:01;;;;;;;499.60;419.83;;;;;;;10.62;51.67;100877.22;690706;28;45209;-63
2022/03/29 00:29:22;;;;;;;502.30;425.85;;;;;;;10.63;51.68;100887.03;694176;28;1610;-64
2022/03/29 00:29:45;;;;;;;504.88;426.48;;;;;;;10.63;51.86;100881.63;690392;28;46720;-63
2022/03/29 00:30:09;;;;;;;502.08;423.65;;;;;;;10.63;51.52;100887.84;690617;28;47418;-63
2022/03/29 00:30:31;;;;;;;501.35;424.88;;;;;;;10.63;51.90;100879.75;686795;28;91873;-63
2022/03/29 00:30:52;;;;;;;500.67;425.33;;;;;;;10.63;51.73;100882.44;690425;28;44374;-63
2022/03/29 00:31:14;;;;;;;500.08;423.05;;;;;;;10.65;51.86;100884.97;693660;28;22401;-63
2022/03/29 00:31:35;;;;;;;501.73;428.38;;;;;;;10.65;51.56;100876.88;692227;28;21687;-63
2022/03/29 00:31:57;;;;;;;500.38;424.33;;;;;;;10.64;51.58;100884.16;692636;28;46341;-63
2022/03/29 00:32:18;;;;;;;500.67;423.30;;;;;;;10.63;51.69;100884.31;693500;28;21519;-63
2022/03/29 00:32:40;;;;;;;500.95;421.48;;;;;;;10.62;51.73;100882.63;692681;28;46306;-63
2022/03/29 00:33:01;;;;;;;500.52;420.85;;;;;;;10.59;51.75;100874.88;693241;28;22366;-64
2022/03/29 00:33:23;;;;;;;499.15;415.60;;;;;;;10.60;51.97;100884.66;693072;28;22233;-64
2022/03/29 00:33:44;;;;;;;501.15;418.73;;;;;;;10.60;51.99;100881.97;692120;28;46324;-64
2022/03/29 00:34:05;;;;;;;499.33;415.23;;;;;;;10.59;52.14;100883.81;693484;28;23485;-63
2022/03/29 00:34:26;;;;;;;498.45;411.45;;;;;;;10.58;51.73;100879.44;692051;28;46305;-63
2022/03/29 00:34:48;;;;;;;499.90;416.60;;;;;;;10.60;52.05;100887.38;692978;28;22145;-63
2022/03/29 00:35:09;;;;;;;498.58;412.40;;;;;;;10.60;51.66;100879.25;692904;28;45269;-64
2022/03/29 00:35:31;;;;;;;498.48;415.10;;;;;;;10.57;51.67;100879.59;693758;28;22395;-64
2022/03/29 00:35:53;;;;;;;499.27;415.95;;;;;;;10.59;52.07;100888.38;693436;28;22382;-64
2022/03/29 00:36:14;;;;;;;499.77;419.67;;;;;;;10.58;51.76;100881.28;692816;28;47182;-64
2022/03/29 00:36:38;;;;;;;501.70;425.15;;;;;;;10.57;51.89;100885.00;691631;28;46268;-63
2022/03/29 00:36:59;;;;;;;501.35;422.17;;;;;;;10.56;52.11;100888.72;690834;28;92999;-64
2022/03/29 00:37:21;;;;;;;499.73;422.25;;;;;;;10.55;52.08;100890.59;693845;28;21521;-63
2022/03/29 00:37:43;;;;;;;499.35;417.90;;;;;;;10.57;51.85;100890.41;692965;28;45153;-63
2022/03/29 00:38:04;;;;;;;499.33;418.35;;;;;;;10.56;52.03;100886.00;693081;28;45258;-63
2022/03/29 00:38:26;;;;;;;499.77;420.52;;;;;;;10.54;52.04;100879.97;693521;28;21603;-64
2022/03/29 00:38:47;;;;;;;498.85;414.95;;;;;;;10.52;52.07;100877.44;692930;28;46402;-63
2022/03/29 00:39:08;;;;;;;499.10;417.13;;;;;;;10.53;51.96;100887.22;693517;28;22387;-63
2022/03/29 00:39:31;;;;;;;499.42;416.52;;;;;;;10.53;51.92;100878.25;692870;28;23532;-63
2022/03/29 00:39:53;;;;;;;500.98;416.33;;;;;;;10.51;52.22;100885.69;692586;28;45377;-64
2022/03/29 00:40:14;;;;;;;498.77;413.33;;;;;;;10.51;52.26;100881.13;692423;28;46228;-64
2022/03/29 00:40:35;;;;;;;499.05;414.92;;;;;;;10.52;52.38;100876.59;693155;28;44685;-63
2022/03/29 00:40:58;;;;;;;499.52;416.25;;;;;;;10.52;52.04;100882.81;693692;28;22403;-63
2022/03/29 00:41:20;;;;;;;498.33;411.58;;;;;;;10.52;52.07;100885.53;693030;28;46354;-64
2022/03/29 00:41:41;;;;;;;498.77;412.13;;;;;;;10.54;52.43;100885.34;667097;28;46295;-64
2022/03/29 00:42:02;;;;;;;497.98;411.02;;;;;;;10.53;52.16;100880.97;696285;28;23503;-64
2022/03/29 00:42:24;;;;;;;496.08;405.73;;;;;;;10.53;52.08;100880.97;695662;28;46381;-63
2022/03/29 00:42:46;;;;;;;496.02;404.40;;;;;;;10.53;52.16;100884.53;698429;28;22557;-63
2022/03/29 00:43:08;;;;;;;497.88;411.60;;;;;;;10.53;52.35;100881.81;697806;28;44145;-63
2022/03/29 00:43:29;;;;;;;497.70;409.42;;;;;;;10.51;52.08;100877.59;694396;28;68383;-63
2022/03/29 00:43:51;;;;;;;497.10;408.63;;;;;;;10.53;52.25;100878.25;694250;28;21553;-63
2022/03/29 00:44:14;;;;;;;494.92;398.77;;;;;;;10.56;52.11;100878.75;693143;28;21558;-63
2022/03/29 00:44:38;;;;;;;495.80;400.45;;;;;;;10.55;52.22;100885.19;691382;28;68947;-63
2022/03/29 00:44:59;;;;;;;493.77;399.92;;;;;;;10.54;52.07;100874.56;691049;28;90303;-63
2022/03/29 00:45:20;;;;;;;495.17;400.67;;;;;;;10.55;51.99;100877.09;692044;28;21537;-64
2022/03/29 00:45:43;;;;;;;493.55;400.08;;;;;;;10.55;52.19;100877.09;693234;28;21520;-63
2022/03/29 00:46:04;;;;;;;489.25;390.70;;;;;;;10.56;52.10;100877.91;690964;28;90331;-64
2022/03/29 00:46:25;;;;;;;488.77;383.48;;;;;;;10.55;52.26;100884.31;693501;28;22342;-63
2022/03/29 00:46:47;;;;;;;478.25;354.65;;;;;;;10.56;52.14;100875.22;692392;28;23493;-64
2022/03/29 00:47:09;;;;;;;487.77;383.00;;;;;;;10.55;52.30;100874.38;693363;28;22393;-64
2022/03/29 00:47:30;;;;;;;496.25;408.00;;;;;;;10.55;52.10;100881.63;692598;28;47387;-64
2022/03/29 00:47:52;;;;;;;496.58;409.92;;;;;;;10.55;52.03;100876.22;693530;28;21261;-64
2022/03/29 00:48:14;;;;;;;496.15;409.33;;;;;;;10.54;52.20;100874.56;692873;28;44372;-64
2022/03/29 00:48:35;;;;;;;496.73;412.02;;;;;;;10.53;52.20;100875.56;691957;28;67329;-64
2022/03/29 00:48:57;;;;;;;496.58;410.95;;;;;;;10.51;52.35;100878.44;693710;28;23234;-64
2022/03/29 00:49:18;;;;;;;496.73;411.02;;;;;;;10.52;52.32;100871.19;693113;28;22431;-64
2022/03/29 00:49:39;;;;;;;498.30;409.00;;;;;;;10.50;52.48;100865.09;693314;28;22180;-63
2022/03/29 00:50:01;;;;;;;497.55;405.42;;;;;;;10.51;52.06;100873.03;693312;28;21540;-64
2022/03/29 00:50:22;;;;;;;495.65;408.00;;;;;;;10.51;52.42;100880.28;692145;28;47340;-64
2022/03/29 00:50:44;;;;;;;496.35;409.48;;;;;;;10.52;52.16;100880.13;693111;28;44383;-63
2022/03/29 00:51:05;;;;;;;495.48;410.17;;;;;;;10.52;52.42;100871.19;693277;28;23830;-63
2022/03/29 00:51:27;;;;;;;495.58;409.92;;;;;;;10.52;52.45;100876.59;693356;28;22370;-63
2022/03/29 00:51:49;;;;;;;495.65;409.77;;;;;;;10.51;52.49;100872.19;690790;28;69400;-63
2022/03/29 00:52:11;;;;;;;493.73;402.08;;;;;;;10.50;52.21;100871.38;692885;28;47047;-63
2022/03/29 00:52:32;;;;;;;495.40;412.30;;;;;;;10.51;52.43;100874.91;693693;28;21601;-63
2022/03/29 00:52:54;;;;;;;495.10;413.25;;;;;;;10.50;52.05;100878.59;692548;28;44384;-63
2022/03/29 00:53:16;;;;;;;493.67;411.00;;;;;;;10.48;52.25;100878.78;692301;28;46013;-63
2022/03/29 00:53:38;;;;;;;494.88;409.83;;;;;;;10.45;52.40;100869.19;692567;28;46144;-64
2022/03/29 00:53:59;;;;;;;494.77;409.85;;;;;;;10.49;52.13;100871.53;692509;28;45275;-63
2022/03/29 00:54:22;;;;;;;493.63;406.50;;;;;;;10.48;52.54;100873.38;692737;28;22682;-63
2022/03/29 00:54:44;;;;;;;494.27;409.08;;;;;;;10.50;52.43;100868.66;692867;28;46278;-63
2022/03/29 00:55:06;;;;;;;494.73;410.35;;;;;;;10.50;52.49;100873.19;691747;28;69508;-63
2022/03/29 00:55:29;;;;;;;494.30;410.10;;;;;;;10.48;52.23;100865.28;692569;28;46305;-63
2022/03/29 00:55:51;;;;;;;494.27;411.65;;;;;;;10.48;52.44;100870.69;692984;28;45481;-63
2022/03/29 00:56:13;;;;;;;493.85;410.00;;;;;;;10.49;52.20;100874.25;692321;28;46270;-63
2022/03/29 00:56:34;;;;;;;493.15;410.35;;;;;;;10.49;52.56;100872.38;692122;28;46185;-63
2022/03/29 00:56:57;;;;;;;492.52;412.27;;;;;;;10.46;52.52;100868.16;693866;28;19765;-63
2022/03/29 00:57:18;;;;;;;494.25;420.10;;;;;;;10.47;52.29;100866.31;691247;28;67492;-63
2022/03/29 00:57:40;;;;;;;491.30;413.60;;;;;;;10.48;52.50;100867.16;693213;28;23728;-63
2022/03/29 00:58:02;;;;;;;474.30;337.30;;;;;;;10.47;52.40;100871.72;692432;28;47280;-64
2022/03/29 00:58:25;;;;;;;469.50;313.42;;;;;;;10.47;52.41;100869.00;692048;28;69460;-63
2022/03/29 00:58:46;;;;;;;470.85;315.20;;;;;;;10.48;52.55;100864.44;692495;28;45247;-63
2022/03/29 00:59:07;;;;;;;469.40;314.50;;;;;;;10.47;52.44;100866.31;693677;28;21685;-63
2022/03/29 00:59:29;;;;;;;473.00;323.77;;;;;;;10.48;52.38;100869.84;693096;28;22422;-63
2022/03/29 00:59:50;;;;;;;478.27;340.40;;;;;;;10.48;52.62;100869.84;692631;28;46306;-63
2022/03/29 01:00:15;;;;;;;482.30;373.33;;;;;;;10.45;52.33;100866.47;692719;28;20814;-64
2022/03/29 01:00:36;;;;;;;490.20;411.88;;;;;;;10.45;52.55;100865.63;690514;28;115120;-63
2022/03/29 01:00:58;;;;;;;491.80;418.20;;;;;;;10.44;52.70;100870.19;693714;28;23455;-63
2022/03/29 01:01:19;;;;;;;491.85;425.13;;;;;;;10.44;52.75;100872.06;692191;28;46310;-63
2022/03/29 01:01:41;;;;;;;493.08;429.90;;;;;;;10.45;52.31;100865.63;692688;28;23410;-63
2022/03/29 01:02:02;;;;;;;494.42;431.50;;;;;;;10.44;52.58;100859.38;690069;28;46655;-63
2022/03/29 01:02:23;;;;;;;493.05;431.02;;;;;;;10.44;52.70;100864.78;693539;28;3735;-63
2022/03/29 01:02:45;;;;;;;494.10;438.48;;;;;;;10.44;52.55;100864.78;693148;28;21131;-63
2022/03/29 01:03:07;;;;;;;498.60;443.60;;;;;;;10.44;52.44;100859.38;692609;28;44202;-63
2022/03/29 01:03:28;;;;;;;497.88;442.77;;;;;;;10.43;52.74;100857.69;695205;28;44749;-63
2022/03/29 01:03:49;;;;;;;496.77;440.50;;;;;;;10.44;52.58;100864.78;696378;28;24362;-63
2022/03/29 01:04:11;;;;;;;494.48;436.80;;;;;;;10.43;52.46;100865.78;698891;28;22402;-63
2022/03/29 01:04:32;;;;;;;496.20;440.35;;;;;;;10.43;52.56;100862.25;697296;28;46288;-63
2022/03/29 01:04:53;;;;;;;496.63;437.70;;;;;;;10.41;52.52;100865.13;698870;28;22389;-63
2022/03/29 01:05:14;;;;;;;496.17;430.55;;;;;;;10.42;52.51;100865.97;697734;28;22396;-63
2022/03/29 01:05:37;;;;;;;497.33;433.92;;;;;;;10.41;52.93;100865.13;693175;28;22420;-63
2022/03/29 01:05:58;;;;;;;497.85;430.90;;;;;;;10.42;52.52;100868.66;691866;28;66901;-63
2022/03/29 01:06:19;;;;;;;496.92;431.60;;;;;;;10.41;52.90;100865.13;693542;28;24422;-63
2022/03/29 01:06:40;;;;;;;497.98;432.77;;;;;;;10.41;52.53;100864.31;692753;28;23521;-63
2022/03/29 01:07:02;;;;;;;498.05;430.75;;;;;;;10.40;52.65;100871.53;694091;28;23448;-63
2022/03/29 01:07:24;;;;;;;496.83;428.98;;;;;;;10.41;52.57;100862.44;693694;28;6182;-63
2022/03/29 01:07:45;;;;;;;496.60;427.58;;;;;;;10.41;52.85;100864.31;693037;28;46439;-63
2022/03/29 01:08:07;;;;;;;495.15;424.05;;;;;;;10.41;52.78;100858.91;693781;28;23534;-63
2022/03/29 01:08:29;;;;;;;494.60;420.77;;;;;;;10.41;52.80;100862.44;693706;28;1166;-63
2022/03/29 01:08:50;;;;;;;496.85;424.30;;;;;;;10.41;52.75;100858.91;692445;28;45259;-63
2022/03/29 01:09:11;;;;;;;497.13;425.30;;;;;;;10.41;52.89;100859.72;693580;28;20498;-63
2022/03/29 01:09:39;;;;;;;497.77;429.10;;;;;;;10.43;52.82;100857.69;691341;28;61187;-63
2022/03/29 01:10:04;;;;;;;497.38;428.08;;;;;;;10.45;52.66;100860.22;693678;28;22401;-64
2022/03/29 01:10:25;;;;;;;494.30;422.07;;;;;;;10.45;52.70;100854.81;690448;28;114608;-63
2022/03/29 01:10:47;;;;;;;494.88;423.05;;;;;;;10.45;52.75;100847.59;692629;28;45278;-63
2022/03/29 01:11:12;;;;;;;493.88;419.40;;;;;;;10.45;52.54;100866.47;692577;28;46328;-63
2022/03/29 01:11:34;;;;;;;494.92;423.58;;;;;;;10.46;52.44;100862.75;689638;28;115111;-63
2022/03/29 01:11:56;;;;;;;495.30;419.33;;;;;;;10.46;52.67;100856.50;692935;28;46323;-63
2022/03/29 01:12:17;;;;;;;494.90;418.75;;;;;;;10.45;52.71;100858.38;693532;28;22231;-63
2022/03/29 01:12:38;;;;;;;493.42;415.92;;;;;;;10.45;52.51;100855.69;693434;28;22395;-63
2022/03/29 01:13:00;;;;;;;493.55;417.65;;;;;;;10.44;52.77;100854.00;693013;28;23614;-63
2022/03/29 01:13:21;;;;;;;492.95;417.17;;;;;;;10.45;52.75;100852.97;692408;28;46399;-63
2022/03/29 01:13:43;;;;;;;493.63;415.45;;;;;;;10.45;52.66;100854.81;693605;28;22254;-63
2022/03/29 01:14:04;;;;;;;493.33;415.42;;;;;;;10.44;52.46;100855.84;694073;28;22446;-63
2022/03/29 01:14:26;;;;;;;494.95;418.35;;;;;;;10.43;52.57;100854.16;693574;28;22509;-63
2022/03/29 01:14:48;;;;;;;493.60;416.23;;;;;;;10.44;52.56;100858.56;692828;28;67427;-63
2022/03/29 01:15:10;;;;;;;491.67;413.30;;;;;;;10.43;52.84;100854.16;693638;28;46256;-63
2022/03/29 01:15:35;;;;;;;492.55;412.45;;;;;;;10.43;52.58;100859.56;693877;28;25916;-63
2022/03/29 01:17:38;;;;;;;490.80;410.58;;;;;;;10.40;52.77;100849.94;691724;28;92269;-63
2022/03/29 01:17:59;;;;;;;489.77;419.42;;;;;;;10.37;52.85;100842.19;689605;28;135968;-63
2022/03/29 01:18:20;;;;;;;489.48;411.45;;;;;;;10.42;52.78;100850.63;692846;28;47183;-63
2022/03/29 01:18:41;;;;;;;488.70;411.15;;;;;;;10.43;52.70;100854.16;692779;28;45368;-64
2022/03/29 01:19:03;;;;;;;491.05;414.25;;;;;;;10.41;52.91;100858.91;694133;28;21579;-63
2022/03/29 01:19:25;;;;;;;490.73;415.85;;;;;;;10.41;52.82;100851.63;693262;28;43987;-63
2022/03/29 01:19:47;;;;;;;494.98;417.20;;;;;;;10.40;52.83;100855.34;692620;28;46682;-63
2022/03/29 01:20:11;;;;;;;492.40;412.98;;;;;;;10.38;52.60;100849.28;693557;28;22918;-64
2022/03/29 01:20:33;;;;;;;491.77;412.40;;;;;;;10.41;52.43;100854.34;690231;28;113685;-63
2022/03/29 01:20:55;;;;;;;492.63;411.92;;;;;;;10.43;52.97;100856.84;693494;28;38353;-63
2022/03/29 01:21:19;;;;;;;493.35;409.77;;;;;;;10.43;52.58;100846.91;698082;28;44708;-63
2022/03/29 01:21:42;;;;;;;494.65;414.73;;;;;;;10.43;53.05;100844.19;698309;28;13375;-63
2022/03/29 01:22:07;;;;;;;494.05;411.63;;;;;;;10.41;52.68;100854.34;697188;28;92222;-63
2022/03/29 01:22:28;;;;;;;494.17;408.90;;;;;;;10.42;52.67;100850.63;696545;28;92180;-63
2022/03/29 01:22:52;;;;;;;494.77;410.83;;;;;;;10.43;52.79;100848.75;699099;28;21557;-63
2022/03/29 01:23:14;;;;;;;492.67;409.33;;;;;;;10.43;52.79;100846.06;693413;28;93015;-63
2022/03/29 01:23:35;;;;;;;495.42;411.67;;;;;;;10.42;52.95;100855.16;693119;28;44197;-63
2022/03/29 01:23:56;;;;;;;495.05;413.58;;;;;;;10.41;52.96;100851.63;694355;28;21494;-63
2022/03/29 01:24:18;;;;;;;493.75;413.25;;;;;;;10.41;53.04;100848.94;693287;28;46306;-63
2022/03/29 01:24:43;;;;;;;493.33;409.45;;;;;;;10.42;53.11;100856.03;693891;28;46389;-63
2022/03/29 01:25:06;;;;;;;491.75;409.50;;;;;;;10.41;52.90;100859.72;690930;28;113833;-64
2022/03/29 01:25:30;;;;;;;492.52;409.17;;;;;;;10.44;52.76;100862.09;692978;28;46207;-63
2022/03/29 01:25:52;;;;;;;492.70;408.98;;;;;;;10.45;52.67;100852.13;691271;28;92212;-64
2022/03/29 01:26:15;;;;;;;494.58;406.80;;;;;;;10.45;52.60;100849.41;692446;28;69358;-63
2022/03/29 01:26:36;;;;;;;493.73;408.27;;;;;;;10.45;52.85;100852.13;691458;28;70406;-64
2022/03/29 01:26:59;;;;;;;493.58;410.45;;;;;;;10.45;52.95;100847.59;692888;28;46096;-63
2022/03/29 01:27:21;;;;;;;493.80;410.50;;;;;;;10.45;52.79;100854.81;693034;28;47140;-64
2022/03/29 01:27:44;;;;;;;496.70;417.08;;;;;;;10.46;52.88;100851.13;692224;28;68405;-63
2022/03/29 01:28:06;;;;;;;495.48;415.20;;;;;;;10.46;52.95;100843.00;692931;28;46366;-63
2022/03/29 01:28:27;;;;;;;495.63;414.52;;;;;;;10.45;52.92;100850.28;692791;28;47305;-63
2022/03/29 01:28:49;;;;;;;494.40;411.75;;;;;;;10.46;52.55;100846.53;693605;28;23486;-63
2022/03/29 01:29:10;;;;;;;492.98;409.85;;;;;;;10.46;52.84;100851.13;693207;28;47567;-63
2022/03/29 01:29:33;;;;;;;495.25;411.35;;;;;;;10.46;52.77;100849.25;692777;28;46262;-63
2022/03/29 01:29:58;;;;;;;496.42;413.60;;;;;;;10.47;52.82;100847.41;692707;28;45295;-63
2022/03/29 01:30:21;;;;;;;494.08;417.10;;;;;;;10.48;52.76;100853.63;690761;28;115762;-63
2022/03/29 01:30:43;;;;;;;495.70;423.90;;;;;;;10.46;52.61;100846.53;692375;28;69279;-63
2022/03/29 01:31:04;;;;;;;496.98;430.92;;;;;;;10.48;52.87;100856.34;692940;28;46489;-63
2022/03/29 01:31:25;;;;;;;498.30;435.92;;;;;;;10.47;52.96;100850.09;694266;28;21426;-63
2022/03/29 01:31:48;;;;;;;499.33;439.45;;;;;;;10.46;52.95;100851.94;693516;28;21540;-63
2022/03/29 01:32:11;;;;;;;500.33;441.13;;;;;;;10.46;52.62;100848.41;691960;28;70574;-64
2022/03/29 01:32:35;;;;;;;498.88;437.52;;;;;;;10.48;52.93;100849.06;692497;28;69556;-64
2022/03/29 01:32:57;;;;;;;500.50;437.60;;;;;;;10.45;52.74;100844.88;691787;28;93151;-63
2022/03/29 01:33:18;;;;;;;499.15;437.23;;;;;;;10.46;52.86;100845.72;693362;28;46264;-63
2022/03/29 01:33:41;;;;;;;498.30;437.00;;;;;;;10.48;52.70;100845.53;693719;28;22400;-63
2022/03/29 01:34:04;;;;;;;497.92;431.23;;;;;;;10.48;52.88;100845.53;692676;28;67117;-64
2022/03/29 01:34:25;;;;;;;498.50;429.98;;;;;;;10.44;52.94;100845.88;692899;28;52326;-63
2022/03/29 01:34:46;;;;;;;498.17;429.25;;;;;;;10.43;52.96;100841.50;693947;28;22380;-63
2022/03/29 01:35:09;;;;;;;498.63;426.80;;;;;;;10.43;53.05;100835.25;694826;28;1100;-63
2022/03/29 01:35:30;;;;;;;498.30;424.55;;;;;;;10.41;53.00;100842.69;692538;28;70170;-63
2022/03/29 01:35:52;;;;;;;496.95;424.20;;;;;;;10.40;53.14;100847.22;693759;28;22323;-63
2022/03/29 01:36:13;;;;;;;497.70;427.58;;;;;;;10.40;52.98;100843.69;693042;28;47150;-63
2022/03/29 01:36:35;;;;;;;497.88;427.42;;;;;;;10.38;52.86;100845.75;693686;28;22204;-64
2022/03/29 01:36:57;;;;;;;498.35;429.35;;;;;;;10.40;52.86;100843.69;693317;28;43769;-64
2022/03/29 01:37:19;;;;;;;497.05;423.20;;;;;;;10.38;53.28;100843.88;692910;28;44229;-63
2022/03/29 01:37:40;;;;;;;496.83;421.45;;;;;;;10.38;53.22;100840.34;692747;28;46379;-63
2022/03/29 01:38:02;;;;;;;496.88;420.77;;;;;;;10.38;53.30;100838.47;694009;28;22363;-64
2022/03/29 01:38:24;;;;;;;497.15;425.10;;;;;;;10.38;53.11;100838.47;694182;28;1514;-64
2022/03/29 01:38:46;;;;;;;497.52;426.17;;;;;;;10.38;52.98;100840.34;693282;28;43617;-64
2022/03/29 01:39:07;;;;;;;496.92;422.17;;;;;;;10.38;53.06;100845.75;692462;28;46386;-63
2022/03/29 01:39:28;;;;;;;497.80;423.88;;;;;;;10.34;53.14;100833.59;693757;28;23401;-64
2022/03/29 01:39:50;;;;;;;499.42;424.52;;;;;;;10.38;53.28;100843.03;694106;28;23490;-63